sensor_id;sensor_type;location;lat;lon;timestamp;temperature;humidity
72114;SHT31;59989;46.220;19.888;2023-07-02T00:02:16;19.85;85.75
72114;SHT31;59989;46.220;19.888;2023-07-02T00:05:20;19.87;85.69
72114;SHT31;59989;46.220;19.888;2023-07-02T00:08:22;19.91;85.52
72114;SHT31;59989;46.220;19.888;2023-07-02T00:11:25;19.84;85.77
72114;SHT31;59989;46.220;19.888;2023-07-02T00:14:28;19.77;86.10
72114;SHT31;59989;46.220;19.888;2023-07-02T00:17:30;19.77;86.25
72114;SHT31;59989;46.220;19.888;2023-07-02T00:20:33;19.77;86.04
72114;SHT31;59989;46.220;19.888;2023-07-02T00:23:40;19.70;86.55
72114;SHT31;59989;46.220;19.888;2023-07-02T00:26:42;19.60;86.69
72114;SHT31;59989;46.220;19.888;2023-07-02T00:29:47;19.56;86.99
72114;SHT31;59989;46.220;19.888;2023-07-02T00:32:49;19.50;87.18
72114;SHT31;59989;46.220;19.888;2023-07-02T00:35:51;19.49;87.13
72114;SHT31;59989;46.220;19.888;2023-07-02T00:38:54;19.50;87.15
72114;SHT31;59989;46.220;19.888;2023-07-02T00:42:02;19.50;87.33
72114;SHT31;59989;46.220;19.888;2023-07-02T00:45:08;19.59;87.20
72114;SHT31;59989;46.220;19.888;2023-07-02T00:48:11;19.66;87.04
72114;SHT31;59989;46.220;19.888;2023-07-02T00:51:16;19.67;87.44
72114;SHT31;59989;46.220;19.888;2023-07-02T00:54:19;19.61;87.08
72114;SHT31;59989;46.220;19.888;2023-07-02T00:57:21;19.57;87.19
72114;SHT31;59989;46.220;19.888;2023-07-02T01:00:24;19.56;87.19
72114;SHT31;59989;46.220;19.888;2023-07-02T01:03:26;19.64;87.03
72114;SHT31;59989;46.220;19.888;2023-07-02T01:06:34;19.73;86.58
72114;SHT31;59989;46.220;19.888;2023-07-02T01:09:37;19.71;86.67
72114;SHT31;59989;46.220;19.888;2023-07-02T01:12:40;19.67;86.94
72114;SHT31;59989;46.220;19.888;2023-07-02T01:15:44;19.64;86.96
72114;SHT31;59989;46.220;19.888;2023-07-02T01:18:48;19.69;86.97
72114;SHT31;59989;46.220;19.888;2023-07-02T01:21:54;19.77;86.56
72114;SHT31;59989;46.220;19.888;2023-07-02T01:24:57;19.74;86.45
72114;SHT31;59989;46.220;19.888;2023-07-02T01:27:59;19.70;86.42
72114;SHT31;59989;46.220;19.888;2023-07-02T01:31:04;19.70;86.65
72114;SHT31;59989;46.220;19.888;2023-07-02T01:34:06;19.64;86.74
72114;SHT31;59989;46.220;19.888;2023-07-02T01:37:10;19.75;86.31
72114;SHT31;59989;46.220;19.888;2023-07-02T01:40:13;19.80;85.97
72114;SHT31;59989;46.220;19.888;2023-07-02T01:43:16;19.88;85.80
72114;SHT31;59989;46.220;19.888;2023-07-02T01:46:18;19.94;85.70
72114;SHT31;59989;46.220;19.888;2023-07-02T01:49:21;19.98;85.65
72114;SHT31;59989;46.220;19.888;2023-07-02T01:52:24;19.98;85.58
72114;SHT31;59989;46.220;19.888;2023-07-02T01:55:26;20.00;85.56
72114;SHT31;59989;46.220;19.888;2023-07-02T01:58:29;19.98;85.46
72114;SHT31;59989;46.220;19.888;2023-07-02T02:01:31;19.97;85.61
72114;SHT31;59989;46.220;19.888;2023-07-02T02:04:35;19.91;85.56
72114;SHT31;59989;46.220;19.888;2023-07-02T02:07:37;19.85;85.59
72114;SHT31;59989;46.220;19.888;2023-07-02T02:10:40;19.81;85.69
72114;SHT31;59989;46.220;19.888;2023-07-02T02:13:43;19.80;85.47
72114;SHT31;59989;46.220;19.888;2023-07-02T02:16:45;19.80;85.28
72114;SHT31;59989;46.220;19.888;2023-07-02T02:19:48;19.80;85.12
72114;SHT31;59989;46.220;19.888;2023-07-02T02:22:51;19.78;84.98
72114;SHT31;59989;46.220;19.888;2023-07-02T02:25:53;19.77;84.75
72114;SHT31;59989;46.220;19.888;2023-07-02T02:28:56;19.75;84.70
72114;SHT31;59989;46.220;19.888;2023-07-02T02:31:59;19.77;84.49
72114;SHT31;59989;46.220;19.888;2023-07-02T02:35:01;19.78;84.41
72114;SHT31;59989;46.220;19.888;2023-07-02T02:38:05;19.75;84.03
72114;SHT31;59989;46.220;19.888;2023-07-02T02:41:08;19.77;83.47
72114;SHT31;59989;46.220;19.888;2023-07-02T02:44:16;19.80;82.77
72114;SHT31;59989;46.220;19.888;2023-07-02T02:47:19;19.82;82.30
72114;SHT31;59989;46.220;19.888;2023-07-02T02:50:21;19.84;81.89
72114;SHT31;59989;46.220;19.888;2023-07-02T02:53:24;19.88;81.57
72114;SHT31;59989;46.220;19.888;2023-07-02T02:56:26;19.94;81.08
72114;SHT31;59989;46.220;19.888;2023-07-02T02:59:29;19.95;80.90
72114;SHT31;59989;46.220;19.888;2023-07-02T03:02:31;19.98;80.78
72114;SHT31;59989;46.220;19.888;2023-07-02T03:05:34;20.02;80.66
72114;SHT31;59989;46.220;19.888;2023-07-02T03:08:36;20.01;80.53
72114;SHT31;59989;46.220;19.888;2023-07-02T03:11:39;20.04;80.42
72114;SHT31;59989;46.220;19.888;2023-07-02T03:14:41;20.04;80.20
72114;SHT31;59989;46.220;19.888;2023-07-02T03:17:43;20.07;79.96
72114;SHT31;59989;46.220;19.888;2023-07-02T03:20:46;20.08;79.86
72114;SHT31;59989;46.220;19.888;2023-07-02T03:23:49;20.14;79.91
72114;SHT31;59989;46.220;19.888;2023-07-02T03:26:51;20.17;79.75
72114;SHT31;59989;46.220;19.888;2023-07-02T03:29:54;20.15;79.63
72114;SHT31;59989;46.220;19.888;2023-07-02T03:32:57;20.17;79.31
72114;SHT31;59989;46.220;19.888;2023-07-02T03:36:00;20.21;79.20
72114;SHT31;59989;46.220;19.888;2023-07-02T03:39:03;20.24;79.18
72114;SHT31;59989;46.220;19.888;2023-07-02T03:42:09;20.26;79.02
72114;SHT31;59989;46.220;19.888;2023-07-02T03:45:12;20.33;78.95
72114;SHT31;59989;46.220;19.888;2023-07-02T03:48:14;20.39;78.85
72114;SHT31;59989;46.220;19.888;2023-07-02T03:51:17;20.43;78.95
72114;SHT31;59989;46.220;19.888;2023-07-02T03:54:19;20.48;78.88
72114;SHT31;59989;46.220;19.888;2023-07-02T03:57:22;20.50;78.66
72114;SHT31;59989;46.220;19.888;2023-07-02T04:00:24;20.60;78.49
72114;SHT31;59989;46.220;19.888;2023-07-02T04:03:27;20.62;78.30
72114;SHT31;59989;46.220;19.888;2023-07-02T04:06:29;20.65;78.35
72114;SHT31;59989;46.220;19.888;2023-07-02T04:09:32;20.69;78.49
72114;SHT31;59989;46.220;19.888;2023-07-02T04:12:35;20.72;78.49
72114;SHT31;59989;46.220;19.888;2023-07-02T04:15:37;20.80;78.46
72114;SHT31;59989;46.220;19.888;2023-07-02T04:18:40;20.84;78.61
72114;SHT31;59989;46.220;19.888;2023-07-02T04:21:42;20.91;78.59
72114;SHT31;59989;46.220;19.888;2023-07-02T04:24:45;20.98;78.65
72114;SHT31;59989;46.220;19.888;2023-07-02T04:27:52;21.04;78.72
72114;SHT31;59989;46.220;19.888;2023-07-02T04:30:58;21.14;78.37
72114;SHT31;59989;46.220;19.888;2023-07-02T04:34:01;21.17;78.56
72114;SHT31;59989;46.220;19.888;2023-07-02T04:37:04;21.20;78.24
72114;SHT31;59989;46.220;19.888;2023-07-02T04:40:07;21.31;78.36
72114;SHT31;59989;46.220;19.888;2023-07-02T04:43:12;21.35;78.40
72114;SHT31;59989;46.220;19.888;2023-07-02T04:46:15;21.41;78.45
72114;SHT31;59989;46.220;19.888;2023-07-02T04:49:18;21.45;78.57
72114;SHT31;59989;46.220;19.888;2023-07-02T04:52:21;21.48;78.65
72114;SHT31;59989;46.220;19.888;2023-07-02T04:55:23;21.46;78.76
72114;SHT31;59989;46.220;19.888;2023-07-02T04:58:26;21.54;78.62
72114;SHT31;59989;46.220;19.888;2023-07-02T05:01:29;21.54;78.64
72114;SHT31;59989;46.220;19.888;2023-07-02T05:04:32;21.52;78.68
72114;SHT31;59989;46.220;19.888;2023-07-02T05:07:35;21.61;78.30
72114;SHT31;59989;46.220;19.888;2023-07-02T05:10:37;21.69;78.02
72114;SHT31;59989;46.220;19.888;2023-07-02T05:13:40;21.71;77.81
72114;SHT31;59989;46.220;19.888;2023-07-02T05:16:43;21.82;77.37
72114;SHT31;59989;46.220;19.888;2023-07-02T05:19:46;21.93;77.89
72114;SHT31;59989;46.220;19.888;2023-07-02T05:22:48;22.02;76.79
72114;SHT31;59989;46.220;19.888;2023-07-02T05:25:51;21.72;77.32
72114;SHT31;59989;46.220;19.888;2023-07-02T05:28:53;21.86;77.14
72114;SHT31;59989;46.220;19.888;2023-07-02T05:31:56;21.86;76.54
72114;SHT31;59989;46.220;19.888;2023-07-02T05:34:59;21.88;76.30
72114;SHT31;59989;46.220;19.888;2023-07-02T05:38:01;21.72;77.59
72114;SHT31;59989;46.220;19.888;2023-07-02T05:41:04;21.86;76.75
72114;SHT31;59989;46.220;19.888;2023-07-02T05:44:06;21.92;76.55
72114;SHT31;59989;46.220;19.888;2023-07-02T05:47:09;21.89;76.38
72114;SHT31;59989;46.220;19.888;2023-07-02T05:50:13;21.94;76.25
72114;SHT31;59989;46.220;19.888;2023-07-02T05:53:16;21.86;75.96
72114;SHT31;59989;46.220;19.888;2023-07-02T05:56:18;21.94;75.97
72114;SHT31;59989;46.220;19.888;2023-07-02T05:59:21;22.03;75.86
72114;SHT31;59989;46.220;19.888;2023-07-02T06:02:23;22.02;75.84
72114;SHT31;59989;46.220;19.888;2023-07-02T06:05:26;22.13;75.95
72114;SHT31;59989;46.220;19.888;2023-07-02T06:08:29;22.20;75.92
72114;SHT31;59989;46.220;19.888;2023-07-02T06:11:31;22.24;75.40
72114;SHT31;59989;46.220;19.888;2023-07-02T06:14:34;22.39;74.35
72114;SHT31;59989;46.220;19.888;2023-07-02T06:17:36;22.51;74.46
72114;SHT31;59989;46.220;19.888;2023-07-02T06:20:40;22.48;73.88
72114;SHT31;59989;46.220;19.888;2023-07-02T06:23:43;22.52;74.08
72114;SHT31;59989;46.220;19.888;2023-07-02T06:26:45;22.81;73.51
72114;SHT31;59989;46.220;19.888;2023-07-02T06:29:48;22.57;72.66
72114;SHT31;59989;46.220;19.888;2023-07-02T06:32:52;22.75;72.97
72114;SHT31;59989;46.220;19.888;2023-07-02T06:35:58;22.62;73.15
72114;SHT31;59989;46.220;19.888;2023-07-02T06:39:02;23.03;72.32
72114;SHT31;59989;46.220;19.888;2023-07-02T06:42:06;23.18;72.29
72114;SHT31;59989;46.220;19.888;2023-07-02T06:45:13;23.20;71.29
72114;SHT31;59989;46.220;19.888;2023-07-02T06:48:16;23.24;71.34
72114;SHT31;59989;46.220;19.888;2023-07-02T06:51:20;23.26;71.18
72114;SHT31;59989;46.220;19.888;2023-07-02T06:54:23;22.95;71.67
72114;SHT31;59989;46.220;19.888;2023-07-02T06:57:26;22.71;71.86
72114;SHT31;59989;46.220;19.888;2023-07-02T07:00:31;22.82;72.54
72114;SHT31;59989;46.220;19.888;2023-07-02T07:03:34;22.76;71.32
72114;SHT31;59989;46.220;19.888;2023-07-02T07:06:37;22.52;72.55
72114;SHT31;59989;46.220;19.888;2023-07-02T07:09:40;22.47;72.67
72114;SHT31;59989;46.220;19.888;2023-07-02T07:12:43;22.67;73.11
72114;SHT31;59989;46.220;19.888;2023-07-02T07:15:45;22.69;72.43
72114;SHT31;59989;46.220;19.888;2023-07-02T07:18:48;22.75;72.72
72114;SHT31;59989;46.220;19.888;2023-07-02T07:21:51;22.94;72.53
72114;SHT31;59989;46.220;19.888;2023-07-02T07:24:53;23.13;70.92
72114;SHT31;59989;46.220;19.888;2023-07-02T07:27:57;23.43;71.40
72114;SHT31;59989;46.220;19.888;2023-07-02T07:30:59;23.51;71.36
72114;SHT31;59989;46.220;19.888;2023-07-02T07:34:02;23.61;71.56
72114;SHT31;59989;46.220;19.888;2023-07-02T07:37:05;23.75;70.75
72114;SHT31;59989;46.220;19.888;2023-07-02T07:40:08;23.77;70.54
72114;SHT31;59989;46.220;19.888;2023-07-02T07:43:10;23.87;70.88
72114;SHT31;59989;46.220;19.888;2023-07-02T07:46:13;24.04;70.71
72114;SHT31;59989;46.220;19.888;2023-07-02T07:49:16;23.85;72.79
72114;SHT31;59989;46.220;19.888;2023-07-02T07:52:18;23.93;72.89
72114;SHT31;59989;46.220;19.888;2023-07-02T07:55:20;24.09;72.15
72114;SHT31;59989;46.220;19.888;2023-07-02T07:58:23;24.28;71.58
72114;SHT31;59989;46.220;19.888;2023-07-02T08:01:26;24.14;71.98
72114;SHT31;59989;46.220;19.888;2023-07-02T08:04:30;24.12;71.07
72114;SHT31;59989;46.220;19.888;2023-07-02T08:07:33;23.94;72.08
72114;SHT31;59989;46.220;19.888;2023-07-02T08:10:35;23.79;72.18
72114;SHT31;59989;46.220;19.888;2023-07-02T08:13:38;24.16;72.19
72114;SHT31;59989;46.220;19.888;2023-07-02T08:16:40;24.32;71.32
72114;SHT31;59989;46.220;19.888;2023-07-02T08:19:43;24.26;70.42
72114;SHT31;59989;46.220;19.888;2023-07-02T08:22:45;24.32;70.82
72114;SHT31;59989;46.220;19.888;2023-07-02T08:25:48;24.56;72.00
72114;SHT31;59989;46.220;19.888;2023-07-02T08:28:51;24.42;70.61
72114;SHT31;59989;46.220;19.888;2023-07-02T08:31:53;24.87;70.00
72114;SHT31;59989;46.220;19.888;2023-07-02T08:34:56;25.59;68.75
72114;SHT31;59989;46.220;19.888;2023-07-02T08:37:58;25.70;66.86
72114;SHT31;59989;46.220;19.888;2023-07-02T08:41:01;26.40;64.62
72114;SHT31;59989;46.220;19.888;2023-07-02T08:44:03;26.26;64.55
72114;SHT31;59989;46.220;19.888;2023-07-02T08:47:06;26.92;64.53
72114;SHT31;59989;46.220;19.888;2023-07-02T08:50:09;27.06;61.59
72114;SHT31;59989;46.220;19.888;2023-07-02T08:53:13;26.92;62.37
72114;SHT31;59989;46.220;19.888;2023-07-02T08:56:15;26.71;63.41
72114;SHT31;59989;46.220;19.888;2023-07-02T08:59:18;26.85;63.85
72114;SHT31;59989;46.220;19.888;2023-07-02T09:02:33;27.06;62.50
72114;SHT31;59989;46.220;19.888;2023-07-02T09:05:35;27.14;62.12
72114;SHT31;59989;46.220;19.888;2023-07-02T09:08:39;26.88;63.38
72114;SHT31;59989;46.220;19.888;2023-07-02T09:11:48;26.84;64.03
72114;SHT31;59989;46.220;19.888;2023-07-02T09:15:03;26.88;64.03
72114;SHT31;59989;46.220;19.888;2023-07-02T09:18:21;26.82;64.24
72114;SHT31;59989;46.220;19.888;2023-07-02T09:21:44;27.00;62.95
72114;SHT31;59989;46.220;19.888;2023-07-02T09:24:52;26.84;64.49
72114;SHT31;59989;46.220;19.888;2023-07-02T09:27:56;27.19;62.93
72114;SHT31;59989;46.220;19.888;2023-07-02T09:30:58;27.06;62.63
72114;SHT31;59989;46.220;19.888;2023-07-02T09:34:01;27.05;62.36
72114;SHT31;59989;46.220;19.888;2023-07-02T09:37:05;27.07;62.43
72114;SHT31;59989;46.220;19.888;2023-07-02T09:40:08;27.14;62.65
72114;SHT31;59989;46.220;19.888;2023-07-02T09:43:11;27.32;62.20
72114;SHT31;59989;46.220;19.888;2023-07-02T09:46:14;27.47;62.74
72114;SHT31;59989;46.220;19.888;2023-07-02T09:49:20;27.39;62.27
72114;SHT31;59989;46.220;19.888;2023-07-02T09:52:23;27.58;61.88
72114;SHT31;59989;46.220;19.888;2023-07-02T09:55:25;27.94;60.56
72114;SHT31;59989;46.220;19.888;2023-07-02T09:58:28;28.05;60.32
72114;SHT31;59989;46.220;19.888;2023-07-02T10:01:34;28.31;59.02
72114;SHT31;59989;46.220;19.888;2023-07-02T10:04:44;28.39;58.00
72114;SHT31;59989;46.220;19.888;2023-07-02T10:07:47;28.45;57.77
72114;SHT31;59989;46.220;19.888;2023-07-02T10:10:49;29.28;57.14
72114;SHT31;59989;46.220;19.888;2023-07-02T10:13:59;29.41;54.41
72114;SHT31;59989;46.220;19.888;2023-07-02T10:17:02;30.44;52.03
72114;SHT31;59989;46.220;19.888;2023-07-02T10:20:06;30.85;50.77
72114;SHT31;59989;46.220;19.888;2023-07-02T10:23:09;31.03;50.12
72114;SHT31;59989;46.220;19.888;2023-07-02T10:26:17;31.02;49.75
72114;SHT31;59989;46.220;19.888;2023-07-02T10:29:21;31.27;48.74
72114;SHT31;59989;46.220;19.888;2023-07-02T10:32:27;31.84;47.98
72114;SHT31;59989;46.220;19.888;2023-07-02T10:35:32;31.39;48.52
72114;SHT31;59989;46.220;19.888;2023-07-02T10:38:35;32.62;46.71
72114;SHT31;59989;46.220;19.888;2023-07-02T10:41:38;31.67;47.44
72114;SHT31;59989;46.220;19.888;2023-07-02T10:44:51;31.50;48.42
72114;SHT31;59989;46.220;19.888;2023-07-02T10:47:54;31.15;48.69
72114;SHT31;59989;46.220;19.888;2023-07-02T10:50:57;32.31;45.13
72114;SHT31;59989;46.220;19.888;2023-07-02T10:54:00;33.34;44.98
72114;SHT31;59989;46.220;19.888;2023-07-02T10:57:03;32.91;44.58
72114;SHT31;59989;46.220;19.888;2023-07-02T11:00:07;32.63;46.14
72114;SHT31;59989;46.220;19.888;2023-07-02T11:03:20;32.36;45.50
72114;SHT31;59989;46.220;19.888;2023-07-02T11:06:24;32.12;44.50
72114;SHT31;59989;46.220;19.888;2023-07-02T11:09:26;33.18;44.35
72114;SHT31;59989;46.220;19.888;2023-07-02T11:12:30;31.89;44.15
72114;SHT31;59989;46.220;19.888;2023-07-02T11:15:35;31.77;44.50
72114;SHT31;59989;46.220;19.888;2023-07-02T11:18:38;32.88;43.46
72114;SHT31;59989;46.220;19.888;2023-07-02T11:21:50;33.20;41.68
72114;SHT31;59989;46.220;19.888;2023-07-02T11:24:53;32.09;44.10
72114;SHT31;59989;46.220;19.888;2023-07-02T11:28:03;30.24;47.09
72114;SHT31;59989;46.220;19.888;2023-07-02T11:31:05;31.67;46.81
72114;SHT31;59989;46.220;19.888;2023-07-02T11:34:13;32.87;43.58
72114;SHT31;59989;46.220;19.888;2023-07-02T11:37:19;33.11;41.70
72114;SHT31;59989;46.220;19.888;2023-07-02T11:40:22;33.68;42.44
72114;SHT31;59989;46.220;19.888;2023-07-02T11:43:25;33.27;42.70
72114;SHT31;59989;46.220;19.888;2023-07-02T11:46:28;31.96;44.97
72114;SHT31;59989;46.220;19.888;2023-07-02T11:49:30;30.12;47.48
72114;SHT31;59989;46.220;19.888;2023-07-02T11:52:34;29.83;52.08
72114;SHT31;59989;46.220;19.888;2023-07-02T11:55:37;29.00;57.57
72114;SHT31;59989;46.220;19.888;2023-07-02T11:58:40;28.22;61.55
72114;SHT31;59989;46.220;19.888;2023-07-02T12:01:43;27.58;62.85
72114;SHT31;59989;46.220;19.888;2023-07-02T12:04:45;27.42;65.79
72114;SHT31;59989;46.220;19.888;2023-07-02T12:07:48;27.24;64.29
72114;SHT31;59989;46.220;19.888;2023-07-02T12:10:51;27.26;66.10
72114;SHT31;59989;46.220;19.888;2023-07-02T12:13:54;27.26;63.51
72114;SHT31;59989;46.220;19.888;2023-07-02T12:16:56;27.58;61.19
72114;SHT31;59989;46.220;19.888;2023-07-02T12:19:59;27.77;64.81
72114;SHT31;59989;46.220;19.888;2023-07-02T12:23:01;27.85;65.06
72114;SHT31;59989;46.220;19.888;2023-07-02T12:26:04;27.88;59.75
72114;SHT31;59989;46.220;19.888;2023-07-02T12:29:06;29.28;50.81
72114;SHT31;59989;46.220;19.888;2023-07-02T12:32:09;30.67;53.62
72114;SHT31;59989;46.220;19.888;2023-07-02T12:35:11;30.21;49.33
72114;SHT31;59989;46.220;19.888;2023-07-02T12:38:14;30.67;47.20
72114;SHT31;59989;46.220;19.888;2023-07-02T12:41:16;30.62;45.69
72114;SHT31;59989;46.220;19.888;2023-07-02T12:44:19;30.51;46.89
72114;SHT31;59989;46.220;19.888;2023-07-02T12:47:21;31.33;44.73
72114;SHT31;59989;46.220;19.888;2023-07-02T12:50:25;30.32;45.23
72114;SHT31;59989;46.220;19.888;2023-07-02T12:53:27;30.16;44.74
72114;SHT31;59989;46.220;19.888;2023-07-02T12:56:30;30.76;43.94
72114;SHT31;59989;46.220;19.888;2023-07-02T12:59:32;30.62;44.25
72114;SHT31;59989;46.220;19.888;2023-07-02T13:02:35;30.04;43.38
72114;SHT31;59989;46.220;19.888;2023-07-02T13:05:55;30.49;41.65
72114;SHT31;59989;46.220;19.888;2023-07-02T13:08:57;33.38;37.00
72114;SHT31;59989;46.220;19.888;2023-07-02T13:12:00;33.32;36.50
72114;SHT31;59989;46.220;19.888;2023-07-02T13:15:02;34.36;35.89
72114;SHT31;59989;46.220;19.888;2023-07-02T13:18:05;35.09;34.51
72114;SHT31;59989;46.220;19.888;2023-07-02T13:21:07;34.78;34.23
72114;SHT31;59989;46.220;19.888;2023-07-02T13:24:10;35.09;34.25
72114;SHT31;59989;46.220;19.888;2023-07-02T13:27:15;34.58;34.82
72114;SHT31;59989;46.220;19.888;2023-07-02T13:30:19;34.67;34.74
72114;SHT31;59989;46.220;19.888;2023-07-02T13:33:21;33.37;36.04
72114;SHT31;59989;46.220;19.888;2023-07-02T13:36:24;31.54;38.35
72114;SHT31;59989;46.220;19.888;2023-07-02T13:39:27;30.76;39.96
72114;SHT31;59989;46.220;19.888;2023-07-02T13:42:29;30.83;39.96
72114;SHT31;59989;46.220;19.888;2023-07-02T13:45:32;30.83;39.83
72114;SHT31;59989;46.220;19.888;2023-07-02T13:48:34;31.74;38.10
72114;SHT31;59989;46.220;19.888;2023-07-02T13:51:37;34.71;34.09
72114;SHT31;59989;46.220;19.888;2023-07-02T13:54:39;35.08;33.99
72114;SHT31;59989;46.220;19.888;2023-07-02T13:57:42;35.66;33.57
72114;SHT31;59989;46.220;19.888;2023-07-02T14:00:45;37.16;33.26
72114;SHT31;59989;46.220;19.888;2023-07-02T14:03:47;34.85;34.32
72114;SHT31;59989;46.220;19.888;2023-07-02T14:06:50;32.55;37.57
72114;SHT31;59989;46.220;19.888;2023-07-02T14:09:52;31.75;39.27
72114;SHT31;59989;46.220;19.888;2023-07-02T14:12:59;34.17;35.87
72114;SHT31;59989;46.220;19.888;2023-07-02T14:16:02;36.25;33.38
72114;SHT31;59989;46.220;19.888;2023-07-02T14:19:05;32.80;37.78
72114;SHT31;59989;46.220;19.888;2023-07-02T14:22:07;33.79;36.08
72114;SHT31;59989;46.220;19.888;2023-07-02T14:25:10;35.61;34.16
72114;SHT31;59989;46.220;19.888;2023-07-02T14:28:13;36.39;33.00
72114;SHT31;59989;46.220;19.888;2023-07-02T14:31:15;36.65;32.69
72114;SHT31;59989;46.220;19.888;2023-07-02T14:34:18;37.03;31.83
72114;SHT31;59989;46.220;19.888;2023-07-02T14:37:20;37.44;31.18
72114;SHT31;59989;46.220;19.888;2023-07-02T14:40:23;37.54;30.55
72114;SHT31;59989;46.220;19.888;2023-07-02T14:43:28;36.44;32.09
72114;SHT31;59989;46.220;19.888;2023-07-02T14:46:31;35.70;33.68
72114;SHT31;59989;46.220;19.888;2023-07-02T14:49:35;32.55;38.88
72114;SHT31;59989;46.220;19.888;2023-07-02T14:52:37;30.74;41.38
72114;SHT31;59989;46.220;19.888;2023-07-02T14:55:40;29.84;43.33
72114;SHT31;59989;46.220;19.888;2023-07-02T14:58:43;31.70;40.69
72114;SHT31;59989;46.220;19.888;2023-07-02T15:01:45;31.78;40.33
72114;SHT31;59989;46.220;19.888;2023-07-02T15:04:48;33.31;38.41
72114;SHT31;59989;46.220;19.888;2023-07-02T15:07:51;34.53;35.83
72114;SHT31;59989;46.220;19.888;2023-07-02T15:10:54;34.68;35.47
72114;SHT31;59989;46.220;19.888;2023-07-02T15:13:57;35.03;34.04
72114;SHT31;59989;46.220;19.888;2023-07-02T15:17:01;35.11;34.76
72114;SHT31;59989;46.220;19.888;2023-07-02T15:20:04;35.59;34.75
72114;SHT31;59989;46.220;19.888;2023-07-02T15:23:06;36.27;34.29
72114;SHT31;59989;46.220;19.888;2023-07-02T15:26:09;36.31;33.24
72114;SHT31;59989;46.220;19.888;2023-07-02T15:29:11;36.62;32.55
72114;SHT31;59989;46.220;19.888;2023-07-02T15:32:14;36.66;32.71
72114;SHT31;59989;46.220;19.888;2023-07-02T15:35:17;36.62;32.52
72114;SHT31;59989;46.220;19.888;2023-07-02T15:38:19;36.04;33.22
72114;SHT31;59989;46.220;19.888;2023-07-02T15:41:22;36.34;33.10
72114;SHT31;59989;46.220;19.888;2023-07-02T15:44:25;33.68;36.49
72114;SHT31;59989;46.220;19.888;2023-07-02T15:47:28;34.06;37.11
72114;SHT31;59989;46.220;19.888;2023-07-02T15:50:33;34.19;37.02
72114;SHT31;59989;46.220;19.888;2023-07-02T15:53:39;35.33;35.55
72114;SHT31;59989;46.220;19.888;2023-07-02T15:56:42;36.04;34.84
72114;SHT31;59989;46.220;19.888;2023-07-02T15:59:44;36.71;33.60
72114;SHT31;59989;46.220;19.888;2023-07-02T16:02:47;37.67;32.71
72114;SHT31;59989;46.220;19.888;2023-07-02T16:05:55;37.13;33.20
72114;SHT31;59989;46.220;19.888;2023-07-02T16:09:02;37.23;32.80
72114;SHT31;59989;46.220;19.888;2023-07-02T16:12:06;36.86;33.59
72114;SHT31;59989;46.220;19.888;2023-07-02T16:15:09;34.81;35.14
72114;SHT31;59989;46.220;19.888;2023-07-02T16:18:11;35.38;35.06
72114;SHT31;59989;46.220;19.888;2023-07-02T16:21:14;35.26;34.94
72114;SHT31;59989;46.220;19.888;2023-07-02T16:24:25;36.01;34.05
72114;SHT31;59989;46.220;19.888;2023-07-02T16:27:28;35.40;33.82
72114;SHT31;59989;46.220;19.888;2023-07-02T16:30:32;34.39;35.13
72114;SHT31;59989;46.220;19.888;2023-07-02T16:33:35;34.23;35.43
72114;SHT31;59989;46.220;19.888;2023-07-02T16:36:39;33.69;35.45
72114;SHT31;59989;46.220;19.888;2023-07-02T16:39:42;33.88;35.03
72114;SHT31;59989;46.220;19.888;2023-07-02T16:42:44;33.92;34.99
72114;SHT31;59989;46.220;19.888;2023-07-02T16:45:53;34.03;34.80
72114;SHT31;59989;46.220;19.888;2023-07-02T16:48:59;32.94;36.20
72114;SHT31;59989;46.220;19.888;2023-07-02T16:52:02;33.41;35.79
72114;SHT31;59989;46.220;19.888;2023-07-02T16:55:04;33.12;36.18
72114;SHT31;59989;46.220;19.888;2023-07-02T16:58:07;33.41;35.74
72114;SHT31;59989;46.220;19.888;2023-07-02T17:01:11;33.38;35.72
72114;SHT31;59989;46.220;19.888;2023-07-02T17:04:14;32.67;36.83
72114;SHT31;59989;46.220;19.888;2023-07-02T17:07:18;30.78;39.97
72114;SHT31;59989;46.220;19.888;2023-07-02T17:10:20;29.96;41.51
72114;SHT31;59989;46.220;19.888;2023-07-02T17:13:24;28.86;43.71
72114;SHT31;59989;46.220;19.888;2023-07-02T17:16:26;28.26;45.00
72114;SHT31;59989;46.220;19.888;2023-07-02T17:19:31;28.01;45.62
72114;SHT31;59989;46.220;19.888;2023-07-02T17:22:37;27.88;46.15
72114;SHT31;59989;46.220;19.888;2023-07-02T17:25:39;27.81;46.41
72114;SHT31;59989;46.220;19.888;2023-07-02T17:28:42;27.65;46.93
72114;SHT31;59989;46.220;19.888;2023-07-02T17:31:48;27.58;47.07
72114;SHT31;59989;46.220;19.888;2023-07-02T17:34:51;27.49;47.46
72114;SHT31;59989;46.220;19.888;2023-07-02T17:37:53;27.39;47.83
72114;SHT31;59989;46.220;19.888;2023-07-02T17:40:56;27.30;47.71
72114;SHT31;59989;46.220;19.888;2023-07-02T17:43:58;27.23;47.32
72114;SHT31;59989;46.220;19.888;2023-07-02T17:47:03;27.19;47.37
72114;SHT31;59989;46.220;19.888;2023-07-02T17:50:07;27.07;47.52
72114;SHT31;59989;46.220;19.888;2023-07-02T17:53:10;27.06;47.00
72114;SHT31;59989;46.220;19.888;2023-07-02T17:56:13;26.99;47.43
72114;SHT31;59989;46.220;19.888;2023-07-02T17:59:16;26.89;47.59
72114;SHT31;59989;46.220;19.888;2023-07-02T18:02:19;26.78;47.97
72114;SHT31;59989;46.220;19.888;2023-07-02T18:05:22;26.68;48.01
72114;SHT31;59989;46.220;19.888;2023-07-02T18:08:25;26.59;48.18
72114;SHT31;59989;46.220;19.888;2023-07-02T18:11:27;26.49;48.51
72114;SHT31;59989;46.220;19.888;2023-07-02T18:14:30;26.36;49.97
72114;SHT31;59989;46.220;19.888;2023-07-02T18:17:33;26.17;50.23
72114;SHT31;59989;46.220;19.888;2023-07-02T18:20:35;26.01;50.94
72114;SHT31;59989;46.220;19.888;2023-07-02T18:23:38;25.86;51.24
72114;SHT31;59989;46.220;19.888;2023-07-02T18:26:40;25.80;51.39
72114;SHT31;59989;46.220;19.888;2023-07-02T18:29:43;25.68;51.88
72114;SHT31;59989;46.220;19.888;2023-07-02T18:32:46;25.55;52.23
72114;SHT31;59989;46.220;19.888;2023-07-02T18:35:48;25.52;51.86
72114;SHT31;59989;46.220;19.888;2023-07-02T18:38:52;25.46;52.00
72114;SHT31;59989;46.220;19.888;2023-07-02T18:41:54;25.34;52.98
72114;SHT31;59989;46.220;19.888;2023-07-02T18:44:57;25.21;53.01
72114;SHT31;59989;46.220;19.888;2023-07-02T18:47:59;25.14;53.06
72114;SHT31;59989;46.220;19.888;2023-07-02T18:51:05;25.01;53.83
72114;SHT31;59989;46.220;19.888;2023-07-02T18:54:08;24.83;56.03
72114;SHT31;59989;46.220;19.888;2023-07-02T18:57:11;24.67;54.74
72114;SHT31;59989;46.220;19.888;2023-07-02T19:00:17;24.64;54.80